sensor_id;sensor_type;location;lat;lon;timestamp;P1;durP1;ratioP1;P2;durP2;ratioP2
22794;SDS011;11564;50.920;11.612;2023-03-01T00:01:28;22.53;;;12.57;;
22794;SDS011;11564;50.920;11.612;2023-03-01T00:03:55;20.53;;;12.73;;
22794;SDS011;11564;50.920;11.612;2023-03-01T00:06:22;22.60;;;13.87;;
22794;SDS011;11564;50.920;11.612;2023-03-01T00:08:48;18.40;;;12.60;;
22794;SDS011;11564;50.920;11.612;2023-03-01T00:11:16;18.87;;;13.23;;
22794;SDS011;11564;50.920;11.612;2023-03-01T00:13:44;18.70;;;12.57;;
22794;SDS011;11564;50.920;11.612;2023-03-01T00:16:12;17.33;;;11.70;;
22794;SDS011;11564;50.920;11.612;2023-03-01T00:18:40;21.27;;;12.67;;
22794;SDS011;11564;50.920;11.612;2023-03-01T00:21:06;19.40;;;12.33;;
22794;SDS011;11564;50.920;11.612;2023-03-01T00:23:33;17.00;;;10.93;;
22794;SDS011;11564;50.920;11.612;2023-03-01T00:25:59;18.10;;;11.90;;
22794;SDS011;11564;50.920;11.612;2023-03-01T00:28:25;19.17;;;13.03;;
22794;SDS011;11564;50.920;11.612;2023-03-01T00:30:50;19.20;;;11.47;;
22794;SDS011;11564;50.920;11.612;2023-03-01T00:33:16;20.67;;;14.00;;
22794;SDS011;11564;50.920;11.612;2023-03-01T00:35:42;21.83;;;13.43;;
22794;SDS011;11564;50.920;11.612;2023-03-01T00:38:08;21.80;;;13.73;;
22794;SDS011;11564;50.920;11.612;2023-03-01T00:40:35;21.23;;;13.33;;
22794;SDS011;11564;50.920;11.612;2023-03-01T00:43:01;19.63;;;12.13;;
22794;SDS011;11564;50.920;11.612;2023-03-01T00:45:27;19.13;;;11.80;;
22794;SDS011;11564;50.920;11.612;2023-03-01T00:47:53;17.80;;;11.57;;
22794;SDS011;11564;50.920;11.612;2023-03-01T00:50:19;22.67;;;12.47;;
22794;SDS011;11564;50.920;11.612;2023-03-01T00:52:45;21.87;;;13.87;;
22794;SDS011;11564;50.920;11.612;2023-03-01T00:55:11;19.23;;;11.33;;
22794;SDS011;11564;50.920;11.612;2023-03-01T00:57:37;20.33;;;12.17;;
22794;SDS011;11564;50.920;11.612;2023-03-01T01:00:06;17.87;;;12.10;;
22794;SDS011;11564;50.920;11.612;2023-03-01T01:02:33;17.93;;;12.80;;
22794;SDS011;11564;50.920;11.612;2023-03-01T01:04:59;24.43;;;14.23;;
22794;SDS011;11564;50.920;11.612;2023-03-01T01:07:24;22.23;;;12.67;;
22794;SDS011;11564;50.920;11.612;2023-03-01T01:09:50;17.90;;;12.43;;
22794;SDS011;11564;50.920;11.612;2023-03-01T01:12:16;20.23;;;13.60;;
22794;SDS011;11564;50.920;11.612;2023-03-01T01:14:41;19.27;;;13.53;;
22794;SDS011;11564;50.920;11.612;2023-03-01T01:17:07;18.30;;;11.63;;
22794;SDS011;11564;50.920;11.612;2023-03-01T01:19:32;20.23;;;11.93;;
22794;SDS011;11564;50.920;11.612;2023-03-01T01:21:58;22.20;;;13.27;;
22794;SDS011;11564;50.920;11.612;2023-03-01T01:24:24;16.63;;;11.70;;
22794;SDS011;11564;50.920;11.612;2023-03-01T01:26:49;18.90;;;12.07;;
22794;SDS011;11564;50.920;11.612;2023-03-01T01:29:15;18.53;;;12.50;;
22794;SDS011;11564;50.920;11.612;2023-03-01T01:31:41;18.87;;;12.30;;
22794;SDS011;11564;50.920;11.612;2023-03-01T01:34:09;19.07;;;11.67;;
22794;SDS011;11564;50.920;11.612;2023-03-01T01:36:42;17.03;;;12.07;;
22794;SDS011;11564;50.920;11.612;2023-03-01T01:39:08;16.67;;;12.07;;
22794;SDS011;11564;50.920;11.612;2023-03-01T01:41:38;26.77;;;12.97;;
22794;SDS011;11564;50.920;11.612;2023-03-01T01:44:12;22.20;;;12.40;;
22794;SDS011;11564;50.920;11.612;2023-03-01T01:46:55;20.30;;;12.70;;
22794;SDS011;11564;50.920;11.612;2023-03-01T01:52:07;20.20;;;11.53;;
22794;SDS011;11564;50.920;11.612;2023-03-01T01:54:50;22.20;;;13.30;;
22794;SDS011;11564;50.920;11.612;2023-03-01T01:57:43;25.07;;;12.30;;
22794;SDS011;11564;50.920;11.612;2023-03-01T02:00:16;19.37;;;11.50;;
22794;SDS011;11564;50.920;11.612;2023-03-01T02:02:47;20.60;;;11.60;;
22794;SDS011;11564;50.920;11.612;2023-03-01T02:05:19;20.47;;;11.70;;
22794;SDS011;11564;50.920;11.612;2023-03-01T02:07:52;20.07;;;11.80;;
22794;SDS011;11564;50.920;11.612;2023-03-01T02:10:19;19.40;;;11.77;;
22794;SDS011;11564;50.920;11.612;2023-03-01T02:12:46;16.90;;;11.20;;
22794;SDS011;11564;50.920;11.612;2023-03-01T02:15:11;22.17;;;13.13;;
22794;SDS011;11564;50.920;11.612;2023-03-01T02:17:37;18.30;;;11.40;;
22794;SDS011;11564;50.920;11.612;2023-03-01T02:20:06;19.20;;;12.70;;
22794;SDS011;11564;50.920;11.612;2023-03-01T02:23:04;17.70;;;11.03;;
22794;SDS011;11564;50.920;11.612;2023-03-01T02:30:50;24.03;;;12.73;;
22794;SDS011;11564;50.920;11.612;2023-03-01T02:33:37;16.20;;;10.60;;
22794;SDS011;11564;50.920;11.612;2023-03-01T02:36:04;16.57;;;11.07;;
22794;SDS011;11564;50.920;11.612;2023-03-01T02:38:34;20.40;;;12.13;;
22794;SDS011;11564;50.920;11.612;2023-03-01T02:41:00;21.30;;;12.43;;
22794;SDS011;11564;50.920;11.612;2023-03-01T02:43:30;21.17;;;11.80;;
22794;SDS011;11564;50.920;11.612;2023-03-01T02:45:58;17.93;;;11.57;;
22794;SDS011;11564;50.920;11.612;2023-03-01T02:48:26;22.47;;;12.23;;
22794;SDS011;11564;50.920;11.612;2023-03-01T02:50:55;19.13;;;12.00;;
22794;SDS011;11564;50.920;11.612;2023-03-01T02:56:20;20.63;;;11.80;;
22794;SDS011;11564;50.920;11.612;2023-03-01T02:58:46;22.13;;;12.80;;
22794;SDS011;11564;50.920;11.612;2023-03-01T03:01:16;20.77;;;13.07;;
22794;SDS011;11564;50.920;11.612;2023-03-01T03:03:42;22.40;;;13.50;;
22794;SDS011;11564;50.920;11.612;2023-03-01T03:06:08;20.33;;;12.70;;
22794;SDS011;11564;50.920;11.612;2023-03-01T03:08:34;20.50;;;13.03;;
22794;SDS011;11564;50.920;11.612;2023-03-01T03:11:03;18.67;;;12.77;;
22794;SDS011;11564;50.920;11.612;2023-03-01T03:13:29;19.77;;;11.67;;
22794;SDS011;11564;50.920;11.612;2023-03-01T03:15:55;23.20;;;13.60;;
22794;SDS011;11564;50.920;11.612;2023-03-01T03:18:21;21.57;;;13.70;;
22794;SDS011;11564;50.920;11.612;2023-03-01T03:20:50;23.77;;;13.57;;
22794;SDS011;11564;50.920;11.612;2023-03-01T03:23:18;22.43;;;13.00;;
22794;SDS011;11564;50.920;11.612;2023-03-01T03:25:44;21.20;;;12.97;;
22794;SDS011;11564;50.920;11.612;2023-03-01T03:28:12;20.20;;;12.87;;
22794;SDS011;11564;50.920;11.612;2023-03-01T03:30:39;27.60;;;13.33;;
22794;SDS011;11564;50.920;11.612;2023-03-01T03:33:06;19.33;;;11.40;;
22794;SDS011;11564;50.920;11.612;2023-03-01T03:35:33;19.60;;;14.43;;
22794;SDS011;11564;50.920;11.612;2023-03-01T03:38:05;20.00;;;12.10;;
22794;SDS011;11564;50.920;11.612;2023-03-01T03:43:05;19.80;;;12.10;;
22794;SDS011;11564;50.920;11.612;2023-03-01T03:45:35;17.07;;;12.20;;
22794;SDS011;11564;50.920;11.612;2023-03-01T03:48:02;27.10;;;12.57;;
22794;SDS011;11564;50.920;11.612;2023-03-01T03:50:29;19.03;;;11.83;;
22794;SDS011;11564;50.920;11.612;2023-03-01T03:52:54;18.33;;;12.27;;
22794;SDS011;11564;50.920;11.612;2023-03-01T03:55:20;21.10;;;13.20;;
22794;SDS011;11564;50.920;11.612;2023-03-01T03:57:46;22.00;;;13.50;;
22794;SDS011;11564;50.920;11.612;2023-03-01T04:00:16;20.80;;;12.63;;
22794;SDS011;11564;50.920;11.612;2023-03-01T04:02:43;19.37;;;13.13;;
22794;SDS011;11564;50.920;11.612;2023-03-01T04:05:10;21.80;;;13.37;;
22794;SDS011;11564;50.920;11.612;2023-03-01T04:07:37;24.73;;;13.67;;
22794;SDS011;11564;50.920;11.612;2023-03-01T04:10:04;28.87;;;14.83;;
22794;SDS011;11564;50.920;11.612;2023-03-01T04:12:32;24.43;;;13.93;;
22794;SDS011;11564;50.920;11.612;2023-03-01T04:15:02;17.07;;;12.10;;
22794;SDS011;11564;50.920;11.612;2023-03-01T04:17:37;20.83;;;13.20;;
22794;SDS011;11564;50.920;11.612;2023-03-01T04:20:11;17.57;;;12.50;;
22794;SDS011;11564;50.920;11.612;2023-03-01T04:22:42;20.63;;;13.57;;
22794;SDS011;11564;50.920;11.612;2023-03-01T04:25:11;21.83;;;12.67;;
22794;SDS011;11564;50.920;11.612;2023-03-01T04:27:39;23.53;;;13.27;;
22794;SDS011;11564;50.920;11.612;2023-03-01T04:30:05;23.70;;;13.90;;
22794;SDS011;11564;50.920;11.612;2023-03-01T04:32:32;19.77;;;12.33;;
22794;SDS011;11564;50.920;11.612;2023-03-01T04:34:58;32.50;;;13.77;;
22794;SDS011;11564;50.920;11.612;2023-03-01T04:37:24;21.67;;;13.40;;
22794;SDS011;11564;50.920;11.612;2023-03-01T04:39:50;20.60;;;12.77;;
22794;SDS011;11564;50.920;11.612;2023-03-01T04:42:16;20.40;;;13.00;;
22794;SDS011;11564;50.920;11.612;2023-03-01T04:44:43;23.40;;;13.57;;
22794;SDS011;11564;50.920;11.612;2023-03-01T04:47:09;19.57;;;13.13;;
22794;SDS011;11564;50.920;11.612;2023-03-01T04:49:35;24.63;;;12.47;;
22794;SDS011;11564;50.920;11.612;2023-03-01T04:52:00;24.90;;;15.07;;
22794;SDS011;11564;50.920;11.612;2023-03-01T04:54:30;20.40;;;13.33;;
22794;SDS011;11564;50.920;11.612;2023-03-01T04:56:57;25.30;;;14.50;;
22794;SDS011;11564;50.920;11.612;2023-03-01T04:59:23;25.07;;;15.10;;
22794;SDS011;11564;50.920;11.612;2023-03-01T05:01:49;25.83;;;13.60;;
22794;SDS011;11564;50.920;11.612;2023-03-01T05:04:15;25.53;;;14.17;;
22794;SDS011;11564;50.920;11.612;2023-03-01T05:06:41;20.47;;;13.43;;
22794;SDS011;11564;50.920;11.612;2023-03-01T05:09:07;24.23;;;14.30;;
22794;SDS011;11564;50.920;11.612;2023-03-01T05:11:33;21.37;;;12.63;;
22794;SDS011;11564;50.920;11.612;2023-03-01T05:14:07;20.40;;;12.00;;
22794;SDS011;11564;50.920;11.612;2023-03-01T05:16:33;21.33;;;13.47;;
22794;SDS011;11564;50.920;11.612;2023-03-01T05:19:01;18.83;;;12.23;;
22794;SDS011;11564;50.920;11.612;2023-03-01T05:21:36;20.80;;;13.60;;
22794;SDS011;11564;50.920;11.612;2023-03-01T05:24:23;20.03;;;12.50;;
22794;SDS011;11564;50.920;11.612;2023-03-01T05:26:49;23.57;;;12.87;;
22794;SDS011;11564;50.920;11.612;2023-03-01T05:29:16;21.97;;;12.57;;
22794;SDS011;11564;50.920;11.612;2023-03-01T05:31:43;21.40;;;11.80;;
22794;SDS011;11564;50.920;11.612;2023-03-01T05:34:08;20.73;;;12.73;;
22794;SDS011;11564;50.920;11.612;2023-03-01T05:36:34;22.00;;;13.87;;
22794;SDS011;11564;50.920;11.612;2023-03-01T05:38:59;19.83;;;12.90;;
22794;SDS011;11564;50.920;11.612;2023-03-01T05:41:25;21.80;;;13.37;;
22794;SDS011;11564;50.920;11.612;2023-03-01T05:43:51;25.50;;;11.67;;
22794;SDS011;11564;50.920;11.612;2023-03-01T05:46:18;17.33;;;12.50;;
22794;SDS011;11564;50.920;11.612;2023-03-01T05:48:44;18.10;;;11.23;;
22794;SDS011;11564;50.920;11.612;2023-03-01T05:51:09;24.30;;;12.73;;
22794;SDS011;11564;50.920;11.612;2023-03-01T05:53:35;18.97;;;11.43;;
22794;SDS011;11564;50.920;11.612;2023-03-01T05:56:02;18.80;;;11.97;;
22794;SDS011;11564;50.920;11.612;2023-03-01T05:58:28;18.63;;;12.23;;
22794;SDS011;11564;50.920;11.612;2023-03-01T06:00:54;28.30;;;13.90;;
22794;SDS011;11564;50.920;11.612;2023-03-01T06:03:20;18.33;;;12.47;;
22794;SDS011;11564;50.920;11.612;2023-03-01T06:05:45;17.77;;;12.07;;
22794;SDS011;11564;50.920;11.612;2023-03-01T06:08:11;26.70;;;12.80;;
22794;SDS011;11564;50.920;11.612;2023-03-01T06:10:37;21.07;;;12.50;;
22794;SDS011;11564;50.920;11.612;2023-03-01T06:13:03;23.00;;;13.50;;
22794;SDS011;11564;50.920;11.612;2023-03-01T06:15:29;22.80;;;12.07;;
22794;SDS011;11564;50.920;11.612;2023-03-01T06:17:55;21.50;;;13.67;;
22794;SDS011;11564;50.920;11.612;2023-03-01T06:20:23;20.70;;;12.57;;
22794;SDS011;11564;50.920;11.612;2023-03-01T06:22:50;22.17;;;13.03;;
22794;SDS011;11564;50.920;11.612;2023-03-01T06:25:17;23.30;;;13.57;;
22794;SDS011;11564;50.920;11.612;2023-03-01T06:27:45;19.03;;;12.60;;
22794;SDS011;11564;50.920;11.612;2023-03-01T06:30:12;19.50;;;13.47;;
22794;SDS011;11564;50.920;11.612;2023-03-01T06:32:40;21.10;;;12.63;;
22794;SDS011;11564;50.920;11.612;2023-03-01T06:35:10;23.10;;;11.97;;
22794;SDS011;11564;50.920;11.612;2023-03-01T06:37:37;18.37;;;12.43;;
22794;SDS011;11564;50.920;11.612;2023-03-01T06:40:03;18.80;;;12.87;;
22794;SDS011;11564;50.920;11.612;2023-03-01T06:42:33;23.83;;;12.73;;
22794;SDS011;11564;50.920;11.612;2023-03-01T06:45:03;17.83;;;12.03;;
22794;SDS011;11564;50.920;11.612;2023-03-01T06:47:29;32.40;;;15.03;;
22794;SDS011;11564;50.920;11.612;2023-03-01T06:49:55;23.40;;;13.70;;
22794;SDS011;11564;50.920;11.612;2023-03-01T06:52:20;17.57;;;11.53;;
22794;SDS011;11564;50.920;11.612;2023-03-01T06:54:46;21.80;;;12.97;;
22794;SDS011;11564;50.920;11.612;2023-03-01T06:57:12;26.93;;;15.33;;
22794;SDS011;11564;50.920;11.612;2023-03-01T06:59:37;24.23;;;15.30;;
22794;SDS011;11564;50.920;11.612;2023-03-01T07:02:03;22.37;;;14.60;;
22794;SDS011;11564;50.920;11.612;2023-03-01T07:04:28;24.77;;;14.40;;
22794;SDS011;11564;50.920;11.612;2023-03-01T07:06:55;26.23;;;14.73;;
22794;SDS011;11564;50.920;11.612;2023-03-01T07:09:24;22.80;;;14.40;;
22794;SDS011;11564;50.920;11.612;2023-03-01T07:11:50;24.53;;;15.07;;
22794;SDS011;11564;50.920;11.612;2023-03-01T07:14:15;21.33;;;14.00;;
22794;SDS011;11564;50.920;11.612;2023-03-01T07:16:41;24.03;;;15.67;;
22794;SDS011;11564;50.920;11.612;2023-03-01T07:19:07;25.20;;;15.97;;
22794;SDS011;11564;50.920;11.612;2023-03-01T07:21:32;23.73;;;15.60;;
22794;SDS011;11564;50.920;11.612;2023-03-01T07:23:58;20.63;;;14.27;;
22794;SDS011;11564;50.920;11.612;2023-03-01T07:26:23;26.67;;;15.20;;
22794;SDS011;11564;50.920;11.612;2023-03-01T07:28:49;23.90;;;15.57;;
22794;SDS011;11564;50.920;11.612;2023-03-01T07:31:14;26.10;;;15.30;;
22794;SDS011;11564;50.920;11.612;2023-03-01T07:33:40;23.57;;;15.50;;
22794;SDS011;11564;50.920;11.612;2023-03-01T07:36:06;26.50;;;15.77;;
22794;SDS011;11564;50.920;11.612;2023-03-01T07:38:32;26.90;;;16.20;;
22794;SDS011;11564;50.920;11.612;2023-03-01T07:40:59;24.07;;;15.63;;
22794;SDS011;11564;50.920;11.612;2023-03-01T07:43:25;28.73;;;16.93;;
22794;SDS011;11564;50.920;11.612;2023-03-01T07:45:52;25.57;;;15.80;;
22794;SDS011;11564;50.920;11.612;2023-03-01T07:48:17;28.87;;;17.00;;
22794;SDS011;11564;50.920;11.612;2023-03-01T07:50:43;28.70;;;17.10;;
22794;SDS011;11564;50.920;11.612;2023-03-01T07:53:09;28.23;;;17.87;;
22794;SDS011;11564;50.920;11.612;2023-03-01T07:55:35;26.00;;;17.33;;
22794;SDS011;11564;50.920;11.612;2023-03-01T07:58:01;27.73;;;17.27;;
22794;SDS011;11564;50.920;11.612;2023-03-01T08:00:26;26.07;;;17.00;;
22794;SDS011;11564;50.920;11.612;2023-03-01T08:02:52;27.40;;;17.63;;
22794;SDS011;11564;50.920;11.612;2023-03-01T08:05:18;25.20;;;15.83;;
22794;SDS011;11564;50.920;11.612;2023-03-01T08:07:44;22.47;;;15.57;;
22794;SDS011;11564;50.920;11.612;2023-03-01T08:10:10;24.50;;;17.67;;
22794;SDS011;11564;50.920;11.612;2023-03-01T08:12:36;22.53;;;15.40;;
22794;SDS011;11564;50.920;11.612;2023-03-01T08:15:01;26.53;;;17.37;;
22794;SDS011;11564;50.920;11.612;2023-03-01T08:17:27;28.20;;;18.20;;
22794;SDS011;11564;50.920;11.612;2023-03-01T08:19:53;25.57;;;15.93;;
22794;SDS011;11564;50.920;11.612;2023-03-01T08:22:18;33.10;;;18.53;;
22794;SDS011;11564;50.920;11.612;2023-03-01T08:24:44;26.77;;;17.37;;
22794;SDS011;11564;50.920;11.612;2023-03-01T08:27:10;27.50;;;16.77;;
22794;SDS011;11564;50.920;11.612;2023-03-01T08:29:37;25.83;;;17.97;;
22794;SDS011;11564;50.920;11.612;2023-03-01T08:32:02;24.53;;;17.23;;
22794;SDS011;11564;50.920;11.612;2023-03-01T08:34:28;26.70;;;17.03;;
22794;SDS011;11564;50.920;11.612;2023-03-01T08:36:56;25.47;;;16.70;;
22794;SDS011;11564;50.920;11.612;2023-03-01T08:39:21;24.60;;;15.73;;
22794;SDS011;11564;50.920;11.612;2023-03-01T08:41:47;21.37;;;15.50;;
22794;SDS011;11564;50.920;11.612;2023-03-01T08:44:13;22.87;;;15.60;;
22794;SDS011;11564;50.920;11.612;2023-03-01T08:46:43;25.93;;;15.30;;
22794;SDS011;11564;50.920;11.612;2023-03-01T08:49:13;26.50;;;14.60;;
22794;SDS011;11564;50.920;11.612;2023-03-01T08:51:40;21.27;;;14.30;;
22794;SDS011;11564;50.920;11.612;2023-03-01T08:54:09;21.63;;;14.27;;
22794;SDS011;11564;50.920;11.612;2023-03-01T08:56:37;21.23;;;14.37;;
22794;SDS011;11564;50.920;11.612;2023-03-01T08:59:03;21.87;;;15.20;;
22794;SDS011;11564;50.920;11.612;2023-03-01T09:01:29;20.50;;;13.67;;
22794;SDS011;11564;50.920;11.612;2023-03-01T09:03:54;20.10;;;12.60;;
22794;SDS011;11564;50.920;11.612;2023-03-01T09:06:20;19.50;;;13.03;;
22794;SDS011;11564;50.920;11.612;2023-03-01T09:08:47;19.70;;;13.83;;
22794;SDS011;11564;50.920;11.612;2023-03-01T09:11:19;20.83;;;13.33;;
22794;SDS011;11564;50.920;11.612;2023-03-01T09:13:46;23.30;;;13.70;;
22794;SDS011;11564;50.920;11.612;2023-03-01T09:16:13;18.85;;;13.63;;
22794;SDS011;11564;50.920;11.612;2023-03-01T09:18:43;23.47;;;14.10;;
22794;SDS011;11564;50.920;11.612;2023-03-01T09:21:10;22.40;;;13.93;;
22794;SDS011;11564;50.920;11.612;2023-03-01T09:23:41;19.83;;;13.70;;
22794;SDS011;11564;50.920;11.612;2023-03-01T09:26:09;15.83;;;12.47;;
22794;SDS011;11564;50.920;11.612;2023-03-01T09:28:46;18.30;;;13.40;;
22794;SDS011;11564;50.920;11.612;2023-03-01T09:31:13;20.27;;;13.10;;
22794;SDS011;11564;50.920;11.612;2023-03-01T09:33:40;19.57;;;13.50;;
22794;SDS011;11564;50.920;11.612;2023-03-01T09:36:08;21.47;;;13.53;;
22794;SDS011;11564;50.920;11.612;2023-03-01T09:38:37;21.10;;;12.77;;
22794;SDS011;11564;50.920;11.612;2023-03-01T09:41:08;20.00;;;12.77;;
22794;SDS011;11564;50.920;11.612;2023-03-01T09:46:55;18.10;;;11.37;;
22794;SDS011;11564;50.920;11.612;2023-03-01T09:49:23;19.70;;;13.07;;
22794;SDS011;11564;50.920;11.612;2023-03-01T09:52:40;20.50;;;12.67;;
22794;SDS011;11564;50.920;11.612;2023-03-01T09:54:57;21.40;;;12.67;;
22794;SDS011;11564;50.920;11.612;2023-03-01T09:57:26;19.13;;;11.90;;
22794;SDS011;11564;50.920;11.612;2023-03-01T10:02:49;20.70;;;11.93;;
22794;SDS011;11564;50.920;11.612;2023-03-01T10:08:32;18.67;;;12.17;;
22794;SDS011;11564;50.920;11.612;2023-03-01T10:11:17;18.23;;;11.63;;
22794;SDS011;11564;50.920;11.612;2023-03-01T10:13:54;16.03;;;12.10;;
22794;SDS011;11564;50.920;11.612;2023-03-01T10:16:41;20.30;;;12.83;;
22794;SDS011;11564;50.920;11.612;2023-03-01T10:22:20;20.77;;;13.07;;
22794;SDS011;11564;50.920;11.612;2023-03-01T10:24:50;17.13;;;12.63;;
22794;SDS011;11564;50.920;11.612;2023-03-01T10:32:24;18.37;;;12.43;;
22794;SDS011;11564;50.920;11.612;2023-03-01T10:34:50;18.17;;;13.03;;
22794;SDS011;11564;50.920;11.612;2023-03-01T10:37:16;23.77;;;13.07;;
22794;SDS011;11564;50.920;11.612;2023-03-01T10:40:03;24.40;;;11.93;;
22794;SDS011;11564;50.920;11.612;2023-03-01T10:42:35;19.83;;;11.80;;
22794;SDS011;11564;50.920;11.612;2023-03-01T10:45:14;19.10;;;12.30;;
22794;SDS011;11564;50.920;11.612;2023-03-01T10:48:05;19.80;;;12.43;;
22794;SDS011;11564;50.920;11.612;2023-03-01T10:50:34;22.47;;;12.63;;
22794;SDS011;11564;50.920;11.612;2023-03-01T10:53:03;16.40;;;11.60;;
22794;SDS011;11564;50.920;11.612;2023-03-01T10:55:39;19.77;;;13.00;;
22794;SDS011;11564;50.920;11.612;2023-03-01T10:58:17;22.07;;;14.40;;
22794;SDS011;11564;50.920;11.612;2023-03-01T11:00:54;17.60;;;12.63;;
22794;SDS011;11564;50.920;11.612;2023-03-01T11:03:29;15.97;;;11.43;;
22794;SDS011;11564;50.920;11.612;2023-03-01T11:05:58;16.17;;;11.80;;
22794;SDS011;11564;50.920;11.612;2023-03-01T11:08:38;16.25;;;11.30;;
22794;SDS011;11564;50.920;11.612;2023-03-01T11:11:13;18.80;;;13.50;;
22794;SDS011;11564;50.920;11.612;2023-03-01T11:16:38;16.17;;;12.07;;
22794;SDS011;11564;50.920;11.612;2023-03-01T11:24:10;18.30;;;12.03;;
22794;SDS011;11564;50.920;11.612;2023-03-01T11:26:40;16.77;;;12.00;;
22794;SDS011;11564;50.920;11.612;2023-03-01T11:31:56;19.03;;;11.07;;
22794;SDS011;11564;50.920;11.612;2023-03-01T11:34:44;16.97;;;11.67;;
22794;SDS011;11564;50.920;11.612;2023-03-01T11:40:40;27.63;;;12.30;;
22794;SDS011;11564;50.920;11.612;2023-03-01T11:57:13;17.83;;;12.47;;
22794;SDS011;11564;50.920;11.612;2023-03-01T11:59:59;22.93;;;13.57;;
22794;SDS011;11564;50.920;11.612;2023-03-01T12:08:33;15.60;;;12.13;;
22794;SDS011;11564;50.920;11.612;2023-03-01T12:11:03;17.03;;;12.00;;
22794;SDS011;11564;50.920;11.612;2023-03-01T12:16:15;18.97;;;12.40;;
22794;SDS011;11564;50.920;11.612;2023-03-01T12:27:05;17.30;;;12.50;;
22794;SDS011;11564;50.920;11.612;2023-03-01T12:35:22;22.10;;;13.03;;
22794;SDS011;11564;50.920;11.612;2023-03-01T12:46:10;18.80;;;13.67;;
22794;SDS011;11564;50.920;11.612;2023-03-01T12:51:30;17.03;;;13.30;;
22794;SDS011;11564;50.920;11.612;2023-03-01T12:53:58;28.53;;;13.70;;
22794;SDS011;11564;50.920;11.612;2023-03-01T12:56:30;17.53;;;12.20;;
22794;SDS011;11564;50.920;11.612;2023-03-01T12:59:14;14.90;;;12.60;;
22794;SDS011;11564;50.920;11.612;2023-03-01T13:04:29;14.97;;;11.60;;
22794;SDS011;11564;50.920;11.612;2023-03-01T13:07:11;22.53;;;11.23;;
22794;SDS011;11564;50.920;11.612;2023-03-01T13:10:03;19.20;;;12.47;;
22794;SDS011;11564;50.920;11.612;2023-03-01T13:12:56;13.40;;;11.27;;
22794;SDS011;11564;50.920;11.612;2023-03-01T13:15:29;21.73;;;12.00;;
22794;SDS011;11564;50.920;11.612;2023-03-01T13:33:55;14.53;;;10.30;;
22794;SDS011;11564;50.920;11.612;2023-03-01T13:44:24;18.73;;;10.97;;
22794;SDS011;11564;50.920;11.612;2023-03-01T13:47:07;11.40;;;10.20;;
22794;SDS011;11564;50.920;11.612;2023-03-01T13:49:58;12.70;;;10.60;;
22794;SDS011;11564;50.920;11.612;2023-03-01T13:54:59;13.03;;;10.90;;
22794;SDS011;11564;50.920;11.612;2023-03-01T13:57:36;11.50;;;10.30;;
22794;SDS011;11564;50.920;11.612;2023-03-01T14:00:04;14.37;;;10.80;;
22794;SDS011;11564;50.920;11.612;2023-03-01T14:02:31;13.63;;;9.27;;
22794;SDS011;11564;50.920;11.612;2023-03-01T14:04:59;13.70;;;10.20;;
22794;SDS011;11564;50.920;11.612;2023-03-01T14:07:26;12.97;;;10.80;;
22794;SDS011;11564;50.920;11.612;2023-03-01T14:10:00;18.63;;;10.40;;
22794;SDS011;11564;50.920;11.612;2023-03-01T14:12:37;12.07;;;10.63;;
22794;SDS011;11564;50.920;11.612;2023-03-01T14:17:58;11.60;;;10.40;;
22794;SDS011;11564;50.920;11.612;2023-03-01T14:20:47;10.67;;;9.00;;
22794;SDS011;11564;50.920;11.612;2023-03-01T14:23:18;14.00;;;9.47;;
22794;SDS011;11564;50.920;11.612;2023-03-01T14:25:46;10.17;;;8.73;;
22794;SDS011;11564;50.920;11.612;2023-03-01T14:28:18;14.90;;;9.60;;
22794;SDS011;11564;50.920;11.612;2023-03-01T14:30:47;12.40;;;10.17;;
22794;SDS011;11564;50.920;11.612;2023-03-01T14:33:25;12.20;;;9.63;;
22794;SDS011;11564;50.920;11.612;2023-03-01T14:36:02;15.10;;;10.47;;
22794;SDS011;11564;50.920;11.612;2023-03-01T14:38:32;15.13;;;9.13;;
22794;SDS011;11564;50.920;11.612;2023-03-01T14:41:01;11.40;;;10.20;;
22794;SDS011;11564;50.920;11.612;2023-03-01T14:43:32;14.50;;;11.47;;
22794;SDS011;11564;50.920;11.612;2023-03-01T14:45:58;14.00;;;10.27;;
22794;SDS011;11564;50.920;11.612;2023-03-01T14:48:24;13.87;;;10.63;;
22794;SDS011;11564;50.920;11.612;2023-03-01T14:50:51;26.00;;;10.13;;
22794;SDS011;11564;50.920;11.612;2023-03-01T14:53:24;15.57;;;9.83;;
22794;SDS011;11564;50.920;11.612;2023-03-01T14:55:56;21.43;;;10.27;;
22794;SDS011;11564;50.920;11.612;2023-03-01T14:58:29;13.30;;;9.90;;
22794;SDS011;11564;50.920;11.612;2023-03-01T15:00:58;16.53;;;11.30;;
22794;SDS011;11564;50.920;11.612;2023-03-01T15:06:04;12.73;;;8.80;;
22794;SDS011;11564;50.920;11.612;2023-03-01T15:08:32;11.50;;;9.77;;
22794;SDS011;11564;50.920;11.612;2023-03-01T15:13:42;14.93;;;10.23;;
22794;SDS011;11564;50.920;11.612;2023-03-01T15:16:13;16.47;;;11.20;;
22794;SDS011;11564;50.920;11.612;2023-03-01T15:18:45;17.33;;;11.20;;
22794;SDS011;11564;50.920;11.612;2023-03-01T15:21:18;18.60;;;12.10;;
22794;SDS011;11564;50.920;11.612;2023-03-01T15:26:33;19.53;;;10.70;;
22794;SDS011;11564;50.920;11.612;2023-03-01T15:29:03;13.93;;;10.50;;
22794;SDS011;11564;50.920;11.612;2023-03-01T15:31:32;17.33;;;11.70;;
22794;SDS011;11564;50.920;11.612;2023-03-01T15:34:07;12.80;;;10.87;;
22794;SDS011;11564;50.920;11.612;2023-03-01T15:36:47;13.97;;;11.20;;
22794;SDS011;11564;50.920;11.612;2023-03-01T15:39:35;18.63;;;10.97;;
22794;SDS011;11564;50.920;11.612;2023-03-01T15:42:05;15.40;;;11.90;;
22794;SDS011;11564;50.920;11.612;2023-03-01T15:48:04;14.60;;;11.90;;
22794;SDS011;11564;50.920;11.612;2023-03-01T15:50:40;18.40;;;11.93;;
22794;SDS011;11564;50.920;11.612;2023-03-01T15:53:12;15.40;;;12.60;;
22794;SDS011;11564;50.920;11.612;2023-03-01T15:55:40;26.57;;;13.83;;
22794;SDS011;11564;50.920;11.612;2023-03-01T15:58:09;17.30;;;13.73;;
22794;SDS011;11564;50.920;11.612;2023-03-01T16:00:41;16.70;;;12.77;;
22794;SDS011;11564;50.920;11.612;2023-03-01T16:03:08;17.10;;;13.23;;
22794;SDS011;11564;50.920;11.612;2023-03-01T16:05:36;18.33;;;12.90;;
22794;SDS011;11564;50.920;11.612;2023-03-01T16:08:03;19.80;;;13.50;;
22794;SDS011;11564;50.920;11.612;2023-03-01T16:10:34;23.70;;;13.67;;
22794;SDS011;11564;50.920;11.612;2023-03-01T16:13:06;21.13;;;13.43;;
22794;SDS011;11564;50.920;11.612;2023-03-01T16:15:33;17.07;;;12.70;;
22794;SDS011;11564;50.920;11.612;2023-03-01T16:18:03;17.83;;;12.43;;
22794;SDS011;11564;50.920;11.612;2023-03-01T16:20:30;14.93;;;11.70;;
22794;SDS011;11564;50.920;11.612;2023-03-01T16:23:04;15.53;;;11.90;;
22794;SDS011;11564;50.920;11.612;2023-03-01T16:25:31;14.37;;;10.03;;
22794;SDS011;11564;50.920;11.612;2023-03-01T16:27:57;15.70;;;11.00;;
22794;SDS011;11564;50.920;11.612;2023-03-01T16:30:25;17.43;;;10.00;;
22794;SDS011;11564;50.920;11.612;2023-03-01T16:32:51;18.53;;;10.53;;
22794;SDS011;11564;50.920;11.612;2023-03-01T16:35:18;13.93;;;9.93;;
22794;SDS011;11564;50.920;11.612;2023-03-01T16:37:46;19.40;;;10.87;;